sensor_id;sensor_type;location;lat;lon;timestamp;P1;durP1;ratioP1;P2;durP2;ratioP2
41221;SDS011;26952;42.884;23.918;2022-09-28T00:00:25;46.78;;;43.88;;
41221;SDS011;26952;42.884;23.918;2022-09-28T00:02:51;52.38;;;49.30;;
41221;SDS011;26952;42.884;23.918;2022-09-28T00:05:21;45.83;;;42.50;;
41221;SDS011;26952;42.884;23.918;2022-09-28T00:07:47;44.13;;;41.30;;
41221;SDS011;26952;42.884;23.918;2022-09-28T00:10:13;59.33;;;55.03;;
41221;SDS011;26952;42.884;23.918;2022-09-28T00:12:40;59.10;;;55.28;;
41221;SDS011;26952;42.884;23.918;2022-09-28T00:15:06;60.08;;;56.40;;
41221;SDS011;26952;42.884;23.918;2022-09-28T00:17:32;58.25;;;54.97;;
41221;SDS011;26952;42.884;23.918;2022-09-28T00:19:58;61.72;;;57.42;;
41221;SDS011;26952;42.884;23.918;2022-09-28T00:22:23;65.22;;;61.45;;
41221;SDS011;26952;42.884;23.918;2022-09-28T00:24:49;61.90;;;58.10;;
41221;SDS011;26952;42.884;23.918;2022-09-28T00:27:14;56.75;;;53.60;;
41221;SDS011;26952;42.884;23.918;2022-09-28T00:29:40;50.55;;;47.85;;
41221;SDS011;26952;42.884;23.918;2022-09-28T00:32:06;50.58;;;47.88;;
41221;SDS011;26952;42.884;23.918;2022-09-28T00:34:37;52.97;;;50.08;;
41221;SDS011;26952;42.884;23.918;2022-09-28T00:37:09;54.17;;;50.90;;
41221;SDS011;26952;42.884;23.918;2022-09-28T00:39:36;55.15;;;52.20;;
41221;SDS011;26952;42.884;23.918;2022-09-28T00:42:15;52.55;;;49.72;;
41221;SDS011;26952;42.884;23.918;2022-09-28T00:44:42;60.75;;;56.25;;
41221;SDS011;26952;42.884;23.918;2022-09-28T00:52:33;50.63;;;47.30;;
41221;SDS011;26952;42.884;23.918;2022-09-28T00:55:04;52.47;;;49.20;;
41221;SDS011;26952;42.884;23.918;2022-09-28T00:57:33;59.55;;;55.97;;
41221;SDS011;26952;42.884;23.918;2022-09-28T01:00:01;50.58;;;47.45;;
41221;SDS011;26952;42.884;23.918;2022-09-28T01:02:27;51.38;;;48.33;;
41221;SDS011;26952;42.884;23.918;2022-09-28T01:04:53;56.17;;;53.03;;
41221;SDS011;26952;42.884;23.918;2022-09-28T01:07:20;65.07;;;61.05;;
41221;SDS011;26952;42.884;23.918;2022-09-28T01:09:46;63.30;;;59.75;;
41221;SDS011;26952;42.884;23.918;2022-09-28T01:12:12;65.93;;;61.65;;
41221;SDS011;26952;42.884;23.918;2022-09-28T01:14:38;62.80;;;59.05;;
41221;SDS011;26952;42.884;23.918;2022-09-28T01:17:15;55.25;;;51.85;;
41221;SDS011;26952;42.884;23.918;2022-09-28T01:25:53;53.33;;;50.33;;
41221;SDS011;26952;42.884;23.918;2022-09-28T01:28:28;54.50;;;51.67;;
41221;SDS011;26952;42.884;23.918;2022-09-28T01:33:49;59.55;;;56.22;;
41221;SDS011;26952;42.884;23.918;2022-09-28T01:36:26;56.10;;;52.88;;
41221;SDS011;26952;42.884;23.918;2022-09-28T01:39:04;58.42;;;55.30;;
41221;SDS011;26952;42.884;23.918;2022-09-28T01:41:33;65.75;;;61.72;;
41221;SDS011;26952;42.884;23.918;2022-09-28T01:44:04;60.53;;;57.10;;
41221;SDS011;26952;42.884;23.918;2022-09-28T01:46:34;65.40;;;60.80;;
41221;SDS011;26952;42.884;23.918;2022-09-28T01:50:05;61.78;;;58.25;;
41221;SDS011;26952;42.884;23.918;2022-09-28T01:52:34;53.45;;;50.55;;
41221;SDS011;26952;42.884;23.918;2022-09-28T01:55:08;57.95;;;54.58;;
41221;SDS011;26952;42.884;23.918;2022-09-28T02:01:04;59.08;;;55.35;;
41221;SDS011;26952;42.884;23.918;2022-09-28T02:03:38;55.58;;;52.63;;
41221;SDS011;26952;42.884;23.918;2022-09-28T02:06:17;58.63;;;54.95;;
41221;SDS011;26952;42.884;23.918;2022-09-28T02:08:49;58.75;;;55.20;;
41221;SDS011;26952;42.884;23.918;2022-09-28T02:11:19;60.50;;;56.78;;
41221;SDS011;26952;42.884;23.918;2022-09-28T02:13:50;60.17;;;56.90;;
41221;SDS011;26952;42.884;23.918;2022-09-28T02:16:25;61.67;;;57.85;;
41221;SDS011;26952;42.884;23.918;2022-09-28T02:19:05;58.42;;;55.45;;
41221;SDS011;26952;42.884;23.918;2022-09-28T02:21:55;61.28;;;57.97;;
41221;SDS011;26952;42.884;23.918;2022-09-28T02:27:01;51.50;;;48.10;;
41221;SDS011;26952;42.884;23.918;2022-09-28T02:29:33;51.28;;;48.25;;
41221;SDS011;26952;42.884;23.918;2022-09-28T02:31:58;52.30;;;49.55;;
41221;SDS011;26952;42.884;23.918;2022-09-28T02:34:24;48.97;;;46.08;;
41221;SDS011;26952;42.884;23.918;2022-09-28T02:36:50;56.42;;;52.78;;
41221;SDS011;26952;42.884;23.918;2022-09-28T02:39:16;49.90;;;47.05;;
41221;SDS011;26952;42.884;23.918;2022-09-28T02:44:44;38.50;;;36.53;;
41221;SDS011;26952;42.884;23.918;2022-09-28T02:47:22;38.67;;;36.47;;
41221;SDS011;26952;42.884;23.918;2022-09-28T02:52:37;43.58;;;41.10;;
41221;SDS011;26952;42.884;23.918;2022-09-28T03:01:31;47.63;;;44.67;;
41221;SDS011;26952;42.884;23.918;2022-09-28T03:09:20;49.55;;;46.72;;
41221;SDS011;26952;42.884;23.918;2022-09-28T03:11:54;44.97;;;42.58;;
41221;SDS011;26952;42.884;23.918;2022-09-28T03:14:22;49.92;;;46.95;;
41221;SDS011;26952;42.884;23.918;2022-09-28T03:16:48;45.03;;;42.15;;
41221;SDS011;26952;42.884;23.918;2022-09-28T03:19:18;44.30;;;42.03;;
41221;SDS011;26952;42.884;23.918;2022-09-28T03:21:48;36.85;;;34.53;;
41221;SDS011;26952;42.884;23.918;2022-09-28T03:24:14;32.72;;;30.75;;
41221;SDS011;26952;42.884;23.918;2022-09-28T03:26:39;31.80;;;29.85;;
41221;SDS011;26952;42.884;23.918;2022-09-28T03:29:05;29.95;;;28.27;;
41221;SDS011;26952;42.884;23.918;2022-09-28T03:31:30;28.83;;;26.73;;
41221;SDS011;26952;42.884;23.918;2022-09-28T03:33:56;32.17;;;30.17;;
41221;SDS011;26952;42.884;23.918;2022-09-28T03:36:21;25.73;;;24.23;;
41221;SDS011;26952;42.884;23.918;2022-09-28T03:38:47;32.22;;;30.23;;
41221;SDS011;26952;42.884;23.918;2022-09-28T03:41:12;34.17;;;32.10;;
41221;SDS011;26952;42.884;23.918;2022-09-28T03:43:38;37.95;;;35.55;;
41221;SDS011;26952;42.884;23.918;2022-09-28T03:46:03;38.20;;;35.22;;
41221;SDS011;26952;42.884;23.918;2022-09-28T03:48:30;35.63;;;33.50;;
41221;SDS011;26952;42.884;23.918;2022-09-28T03:50:58;35.83;;;33.33;;
41221;SDS011;26952;42.884;23.918;2022-09-28T03:53:25;42.78;;;39.97;;
41221;SDS011;26952;42.884;23.918;2022-09-28T03:55:52;37.63;;;35.55;;
41221;SDS011;26952;42.884;23.918;2022-09-28T03:58:19;38.03;;;35.55;;
41221;SDS011;26952;42.884;23.918;2022-09-28T04:00:45;38.33;;;35.80;;
41221;SDS011;26952;42.884;23.918;2022-09-28T04:03:10;37.33;;;34.92;;
41221;SDS011;26952;42.884;23.918;2022-09-28T04:05:36;35.17;;;33.38;;
41221;SDS011;26952;42.884;23.918;2022-09-28T04:08:01;35.53;;;33.50;;
41221;SDS011;26952;42.884;23.918;2022-09-28T04:10:27;35.00;;;32.95;;
41221;SDS011;26952;42.884;23.918;2022-09-28T04:12:53;33.53;;;31.65;;
41221;SDS011;26952;42.884;23.918;2022-09-28T04:15:24;35.05;;;32.65;;
41221;SDS011;26952;42.884;23.918;2022-09-28T04:17:50;37.15;;;34.05;;
41221;SDS011;26952;42.884;23.918;2022-09-28T04:20:16;30.45;;;28.50;;
41221;SDS011;26952;42.884;23.918;2022-09-28T04:22:41;34.25;;;32.28;;
41221;SDS011;26952;42.884;23.918;2022-09-28T04:25:08;35.75;;;33.90;;
41221;SDS011;26952;42.884;23.918;2022-09-28T04:27:34;34.28;;;32.17;;
41221;SDS011;26952;42.884;23.918;2022-09-28T04:30:18;28.88;;;26.77;;
41221;SDS011;26952;42.884;23.918;2022-09-28T04:32:47;30.30;;;28.17;;
41221;SDS011;26952;42.884;23.918;2022-09-28T04:35:13;28.33;;;26.58;;
41221;SDS011;26952;42.884;23.918;2022-09-28T04:37:39;30.75;;;29.05;;
41221;SDS011;26952;42.884;23.918;2022-09-28T04:40:04;34.55;;;32.10;;
41221;SDS011;26952;42.884;23.918;2022-09-28T04:42:30;32.88;;;30.80;;
41221;SDS011;26952;42.884;23.918;2022-09-28T04:44:56;33.88;;;31.88;;
41221;SDS011;26952;42.884;23.918;2022-09-28T04:47:22;35.28;;;33.35;;
41221;SDS011;26952;42.884;23.918;2022-09-28T04:49:49;39.22;;;36.90;;
41221;SDS011;26952;42.884;23.918;2022-09-28T04:52:14;32.88;;;30.58;;
41221;SDS011;26952;42.884;23.918;2022-09-28T04:54:40;32.67;;;30.73;;
41221;SDS011;26952;42.884;23.918;2022-09-28T04:57:05;31.92;;;30.05;;
41221;SDS011;26952;42.884;23.918;2022-09-28T04:59:31;35.65;;;33.28;;
41221;SDS011;26952;42.884;23.918;2022-09-28T05:01:56;36.65;;;34.83;;
41221;SDS011;26952;42.884;23.918;2022-09-28T05:04:22;38.50;;;36.22;;
41221;SDS011;26952;42.884;23.918;2022-09-28T05:06:47;43.70;;;41.03;;
41221;SDS011;26952;42.884;23.918;2022-09-28T05:09:13;44.83;;;42.33;;
41221;SDS011;26952;42.884;23.918;2022-09-28T05:11:38;52.10;;;49.28;;
41221;SDS011;26952;42.884;23.918;2022-09-28T05:14:03;56.38;;;53.45;;
41221;SDS011;26952;42.884;23.918;2022-09-28T05:16:29;57.35;;;52.92;;
41221;SDS011;26952;42.884;23.918;2022-09-28T05:18:57;53.22;;;50.55;;
41221;SDS011;26952;42.884;23.918;2022-09-28T05:21:23;49.72;;;47.13;;
41221;SDS011;26952;42.884;23.918;2022-09-28T05:23:50;56.95;;;53.55;;
41221;SDS011;26952;42.884;23.918;2022-09-28T05:26:16;54.60;;;51.10;;
41221;SDS011;26952;42.884;23.918;2022-09-28T05:28:43;56.85;;;53.72;;
41221;SDS011;26952;42.884;23.918;2022-09-28T05:31:08;62.08;;;58.80;;
41221;SDS011;26952;42.884;23.918;2022-09-28T05:33:34;55.67;;;52.45;;
41221;SDS011;26952;42.884;23.918;2022-09-28T05:36:00;53.33;;;50.40;;
41221;SDS011;26952;42.884;23.918;2022-09-28T05:38:26;68.28;;;64.57;;
41221;SDS011;26952;42.884;23.918;2022-09-28T05:40:52;72.10;;;67.25;;
41221;SDS011;26952;42.884;23.918;2022-09-28T05:43:17;72.90;;;69.00;;
41221;SDS011;26952;42.884;23.918;2022-09-28T05:45:43;59.22;;;56.10;;
41221;SDS011;26952;42.884;23.918;2022-09-28T05:48:08;56.38;;;53.20;;
41221;SDS011;26952;42.884;23.918;2022-09-28T05:50:34;58.70;;;55.28;;
41221;SDS011;26952;42.884;23.918;2022-09-28T05:53:03;56.95;;;53.97;;
41221;SDS011;26952;42.884;23.918;2022-09-28T05:55:32;53.88;;;51.00;;
41221;SDS011;26952;42.884;23.918;2022-09-28T05:57:59;51.97;;;49.25;;
41221;SDS011;26952;42.884;23.918;2022-09-28T06:00:25;37.70;;;35.67;;
41221;SDS011;26952;42.884;23.918;2022-09-28T06:02:54;39.53;;;37.40;;
41221;SDS011;26952;42.884;23.918;2022-09-28T06:05:24;40.47;;;38.28;;
41221;SDS011;26952;42.884;23.918;2022-09-28T06:07:50;42.17;;;39.90;;
41221;SDS011;26952;42.884;23.918;2022-09-28T06:10:15;53.45;;;50.15;;
41221;SDS011;26952;42.884;23.918;2022-09-28T06:12:40;54.92;;;52.10;;
41221;SDS011;26952;42.884;23.918;2022-09-28T06:15:06;68.60;;;65.22;;
41221;SDS011;26952;42.884;23.918;2022-09-28T06:17:32;81.97;;;77.10;;
41221;SDS011;26952;42.884;23.918;2022-09-28T06:19:57;74.93;;;70.95;;
41221;SDS011;26952;42.884;23.918;2022-09-28T06:22:23;81.90;;;77.50;;
41221;SDS011;26952;42.884;23.918;2022-09-28T06:24:48;83.32;;;79.32;;
41221;SDS011;26952;42.884;23.918;2022-09-28T06:27:14;94.43;;;89.70;;
41221;SDS011;26952;42.884;23.918;2022-09-28T06:29:39;89.22;;;84.72;;
41221;SDS011;26952;42.884;23.918;2022-09-28T06:32:05;91.78;;;87.10;;
41221;SDS011;26952;42.884;23.918;2022-09-28T06:34:31;79.43;;;75.55;;
41221;SDS011;26952;42.884;23.918;2022-09-28T06:36:56;96.65;;;91.78;;
41221;SDS011;26952;42.884;23.918;2022-09-28T06:39:22;89.13;;;84.53;;
41221;SDS011;26952;42.884;23.918;2022-09-28T06:41:47;81.00;;;76.88;;
41221;SDS011;26952;42.884;23.918;2022-09-28T06:44:13;40.50;;;38.30;;
41221;SDS011;26952;42.884;23.918;2022-09-28T06:46:38;48.60;;;45.90;;
41221;SDS011;26952;42.884;23.918;2022-09-28T06:49:04;53.33;;;50.40;;
41221;SDS011;26952;42.884;23.918;2022-09-28T06:51:33;51.22;;;48.72;;
41221;SDS011;26952;42.884;23.918;2022-09-28T06:53:59;51.55;;;48.90;;
41221;SDS011;26952;42.884;23.918;2022-09-28T06:56:24;54.30;;;51.35;;
41221;SDS011;26952;42.884;23.918;2022-09-28T06:58:49;50.38;;;47.40;;
41221;SDS011;26952;42.884;23.918;2022-09-28T07:01:15;60.22;;;54.05;;
41221;SDS011;26952;42.884;23.918;2022-09-28T07:03:40;38.40;;;36.10;;
41221;SDS011;26952;42.884;23.918;2022-09-28T07:06:08;37.75;;;35.63;;
41221;SDS011;26952;42.884;23.918;2022-09-28T07:08:35;42.65;;;39.22;;
41221;SDS011;26952;42.884;23.918;2022-09-28T07:11:03;23.38;;;21.77;;
41221;SDS011;26952;42.884;23.918;2022-09-28T07:13:30;156.88;;;89.30;;
41221;SDS011;26952;42.884;23.918;2022-09-28T07:15:58;43.40;;;39.60;;
41221;SDS011;26952;42.884;23.918;2022-09-28T07:18:24;60.78;;;54.33;;
41221;SDS011;26952;42.884;23.918;2022-09-28T07:20:50;50.58;;;47.15;;
41221;SDS011;26952;42.884;23.918;2022-09-28T07:23:15;50.67;;;47.97;;
41221;SDS011;26952;42.884;23.918;2022-09-28T07:25:42;48.55;;;45.75;;
41221;SDS011;26952;42.884;23.918;2022-09-28T07:28:11;109.88;;;65.15;;
41221;SDS011;26952;42.884;23.918;2022-09-28T07:30:36;72.78;;;50.30;;
41221;SDS011;26952;42.884;23.918;2022-09-28T07:33:02;50.30;;;41.22;;
41221;SDS011;26952;42.884;23.918;2022-09-28T07:35:30;39.10;;;37.05;;
41221;SDS011;26952;42.884;23.918;2022-09-28T07:38:02;55.50;;;51.75;;
41221;SDS011;26952;42.884;23.918;2022-09-28T07:40:29;43.50;;;40.75;;
41221;SDS011;26952;42.884;23.918;2022-09-28T07:43:14;84.88;;;79.78;;
41221;SDS011;26952;42.884;23.918;2022-09-28T07:45:44;87.97;;;83.22;;
41221;SDS011;26952;42.884;23.918;2022-09-28T07:48:11;82.30;;;78.30;;
41221;SDS011;26952;42.884;23.918;2022-09-28T07:50:39;75.32;;;71.30;;
41221;SDS011;26952;42.884;23.918;2022-09-28T07:53:05;65.43;;;62.00;;
41221;SDS011;26952;42.884;23.918;2022-09-28T07:55:31;64.80;;;61.65;;
41221;SDS011;26952;42.884;23.918;2022-09-28T07:57:56;63.58;;;60.38;;
41221;SDS011;26952;42.884;23.918;2022-09-28T08:00:25;73.50;;;69.80;;
41221;SDS011;26952;42.884;23.918;2022-09-28T08:02:51;59.58;;;56.53;;
41221;SDS011;26952;42.884;23.918;2022-09-28T08:05:16;75.38;;;71.38;;
41221;SDS011;26952;42.884;23.918;2022-09-28T08:07:42;78.22;;;74.25;;
41221;SDS011;26952;42.884;23.918;2022-09-28T08:10:08;71.43;;;67.75;;
41221;SDS011;26952;42.884;23.918;2022-09-28T08:12:34;66.82;;;63.40;;
41221;SDS011;26952;42.884;23.918;2022-09-28T08:15:00;68.72;;;65.07;;
41221;SDS011;26952;42.884;23.918;2022-09-28T08:17:25;72.90;;;68.93;;
41221;SDS011;26952;42.884;23.918;2022-09-28T08:19:51;70.40;;;66.53;;
41221;SDS011;26952;42.884;23.918;2022-09-28T08:22:35;82.68;;;78.55;;
41221;SDS011;26952;42.884;23.918;2022-09-28T08:25:01;76.78;;;72.90;;
41221;SDS011;26952;42.884;23.918;2022-09-28T08:27:26;78.63;;;74.50;;
41221;SDS011;26952;42.884;23.918;2022-09-28T08:29:52;73.88;;;70.22;;
41221;SDS011;26952;42.884;23.918;2022-09-28T08:32:17;69.55;;;66.10;;
41221;SDS011;26952;42.884;23.918;2022-09-28T08:34:43;68.47;;;65.05;;
41221;SDS011;26952;42.884;23.918;2022-09-28T08:37:08;79.40;;;75.15;;
41221;SDS011;26952;42.884;23.918;2022-09-28T08:39:34;76.85;;;72.38;;
41221;SDS011;26952;42.884;23.918;2022-09-28T08:44:41;90.00;;;85.53;;
41221;SDS011;26952;42.884;23.918;2022-09-28T08:47:13;96.30;;;91.53;;
41221;SDS011;26952;42.884;23.918;2022-09-28T08:50:15;91.22;;;86.65;;
41221;SDS011;26952;42.884;23.918;2022-09-28T08:52:43;86.25;;;81.88;;
41221;SDS011;26952;42.884;23.918;2022-09-28T08:55:17;87.25;;;82.78;;
41221;SDS011;26952;42.884;23.918;2022-09-28T09:00:19;91.18;;;86.80;;
41221;SDS011;26952;42.884;23.918;2022-09-28T09:02:46;86.97;;;82.75;;
41221;SDS011;26952;42.884;23.918;2022-09-28T09:05:13;86.63;;;82.38;;
41221;SDS011;26952;42.884;23.918;2022-09-28T09:18:41;82.30;;;78.07;;
41221;SDS011;26952;42.884;23.918;2022-09-28T09:21:13;82.20;;;78.18;;
41221;SDS011;26952;42.884;23.918;2022-09-28T09:26:23;80.53;;;76.43;;
41221;SDS011;26952;42.884;23.918;2022-09-28T09:31:48;79.40;;;75.47;;
41221;SDS011;26952;42.884;23.918;2022-09-28T09:48:05;88.68;;;84.18;;
41221;SDS011;26952;42.884;23.918;2022-09-28T09:50:38;94.10;;;89.55;;
41221;SDS011;26952;42.884;23.918;2022-09-28T09:53:21;91.65;;;87.28;;
41221;SDS011;26952;42.884;23.918;2022-09-28T09:56:15;94.03;;;89.47;;
41221;SDS011;26952;42.884;23.918;2022-09-28T09:58:50;90.95;;;86.65;;
41221;SDS011;26952;42.884;23.918;2022-09-28T10:01:54;76.65;;;72.88;;
41221;SDS011;26952;42.884;23.918;2022-09-28T10:04:16;68.47;;;64.95;;
41221;SDS011;26952;42.884;23.918;2022-09-28T10:06:50;98.80;;;94.13;;
41221;SDS011;26952;42.884;23.918;2022-09-28T10:09:25;61.47;;;58.45;;
41221;SDS011;26952;42.884;23.918;2022-09-28T10:11:55;87.65;;;83.38;;
41221;SDS011;26952;42.884;23.918;2022-09-28T10:14:24;57.03;;;54.20;;
41221;SDS011;26952;42.884;23.918;2022-09-28T10:16:50;66.57;;;63.30;;
41221;SDS011;26952;42.884;23.918;2022-09-28T10:19:18;51.55;;;48.90;;
41221;SDS011;26952;42.884;23.918;2022-09-28T10:21:46;37.63;;;35.78;;
41221;SDS011;26952;42.884;23.918;2022-09-28T10:24:19;47.47;;;45.13;;
41221;SDS011;26952;42.884;23.918;2022-09-28T10:26:52;46.67;;;44.08;;
41221;SDS011;26952;42.884;23.918;2022-09-28T10:29:20;45.03;;;42.83;;
41221;SDS011;26952;42.884;23.918;2022-09-28T10:31:49;45.72;;;43.53;;
41221;SDS011;26952;42.884;23.918;2022-09-28T10:34:17;48.63;;;46.13;;
41221;SDS011;26952;42.884;23.918;2022-09-28T10:36:52;50.75;;;47.95;;
41221;SDS011;26952;42.884;23.918;2022-09-28T10:39:36;49.03;;;46.60;;
41221;SDS011;26952;42.884;23.918;2022-09-28T10:42:08;61.58;;;58.38;;
41221;SDS011;26952;42.884;23.918;2022-09-28T10:45:16;58.88;;;55.70;;
41221;SDS011;26952;42.884;23.918;2022-09-28T10:47:43;56.55;;;53.60;;
41221;SDS011;26952;42.884;23.918;2022-09-28T10:53:37;64.70;;;61.15;;
41221;SDS011;26952;42.884;23.918;2022-09-28T10:55:58;52.63;;;49.67;;
41221;SDS011;26952;42.884;23.918;2022-09-28T11:01:11;40.10;;;38.10;;
41221;SDS011;26952;42.884;23.918;2022-09-28T11:04:01;53.88;;;51.13;;
41221;SDS011;26952;42.884;23.918;2022-09-28T11:06:29;51.63;;;48.88;;
41221;SDS011;26952;42.884;23.918;2022-09-28T11:08:58;54.17;;;51.55;;
41221;SDS011;26952;42.884;23.918;2022-09-28T11:13:55;34.88;;;33.20;;
41221;SDS011;26952;42.884;23.918;2022-09-28T11:16:31;53.67;;;50.97;;
41221;SDS011;26952;42.884;23.918;2022-09-28T11:21:45;52.83;;;50.03;;
41221;SDS011;26952;42.884;23.918;2022-09-28T11:26:46;53.65;;;51.05;;
41221;SDS011;26952;42.884;23.918;2022-09-28T11:29:39;40.45;;;38.28;;
41221;SDS011;26952;42.884;23.918;2022-09-28T11:32:07;38.45;;;36.45;;
41221;SDS011;26952;42.884;23.918;2022-09-28T11:34:44;33.45;;;31.77;;
41221;SDS011;26952;42.884;23.918;2022-09-28T11:42:57;38.50;;;36.50;;
41221;SDS011;26952;42.884;23.918;2022-09-28T11:45:35;33.58;;;31.75;;
41221;SDS011;26952;42.884;23.918;2022-09-28T11:48:22;35.85;;;34.00;;
41221;SDS011;26952;42.884;23.918;2022-09-28T11:50:52;43.63;;;41.38;;
41221;SDS011;26952;42.884;23.918;2022-09-28T11:53:44;40.95;;;38.72;;
41221;SDS011;26952;42.884;23.918;2022-09-28T11:59:29;41.47;;;39.45;;
41221;SDS011;26952;42.884;23.918;2022-09-28T12:04:41;48.50;;;46.08;;
41221;SDS011;26952;42.884;23.918;2022-09-28T12:07:20;48.53;;;46.10;;
41221;SDS011;26952;42.884;23.918;2022-09-28T12:20:39;46.53;;;44.30;;
41221;SDS011;26952;42.884;23.918;2022-09-28T12:25:40;39.40;;;37.40;;
41221;SDS011;26952;42.884;23.918;2022-09-28T12:33:34;38.67;;;36.65;;
41221;SDS011;26952;42.884;23.918;2022-09-28T12:36:04;40.25;;;37.97;;
41221;SDS011;26952;42.884;23.918;2022-09-28T12:41:17;36.08;;;34.17;;
41221;SDS011;26952;42.884;23.918;2022-09-28T12:49:29;55.13;;;52.15;;
41221;SDS011;26952;42.884;23.918;2022-09-28T12:52:17;64.18;;;60.97;;
41221;SDS011;26952;42.884;23.918;2022-09-28T13:00:12;65.82;;;62.42;;
41221;SDS011;26952;42.884;23.918;2022-09-28T13:02:53;68.50;;;65.20;;
41221;SDS011;26952;42.884;23.918;2022-09-28T13:17:03;61.92;;;58.80;;
41221;SDS011;26952;42.884;23.918;2022-09-28T13:22:23;68.90;;;65.28;;
41221;SDS011;26952;42.884;23.918;2022-09-28T13:24:51;64.43;;;61.35;;
41221;SDS011;26952;42.884;23.918;2022-09-28T13:28:03;68.13;;;64.70;;
41221;SDS011;26952;42.884;23.918;2022-09-28T13:30:14;66.00;;;62.58;;
41221;SDS011;26952;42.884;23.918;2022-09-28T13:32:41;70.05;;;66.50;;
41221;SDS011;26952;42.884;23.918;2022-09-28T13:35:14;71.95;;;68.07;;
41221;SDS011;26952;42.884;23.918;2022-09-28T13:37:45;104.95;;;99.40;;
41221;SDS011;26952;42.884;23.918;2022-09-28T13:40:11;123.57;;;116.93;;
41221;SDS011;26952;42.884;23.918;2022-09-28T13:56:13;127.25;;;120.53;;
41221;SDS011;26952;42.884;23.918;2022-09-28T13:59:43;120.65;;;114.15;;
41221;SDS011;26952;42.884;23.918;2022-09-28T14:07:22;110.97;;;104.70;;
41221;SDS011;26952;42.884;23.918;2022-09-28T14:12:43;89.43;;;84.93;;
41221;SDS011;26952;42.884;23.918;2022-09-28T14:15:55;86.63;;;82.10;;
41221;SDS011;26952;42.884;23.918;2022-09-28T14:20:38;82.10;;;77.22;;
41221;SDS011;26952;42.884;23.918;2022-09-28T14:23:36;81.28;;;76.57;;
41221;SDS011;26952;42.884;23.918;2022-09-28T14:29:14;74.35;;;70.40;;
41221;SDS011;26952;42.884;23.918;2022-09-28T14:31:31;66.65;;;63.22;;
41221;SDS011;26952;42.884;23.918;2022-09-28T14:34:00;73.05;;;69.18;;
41221;SDS011;26952;42.884;23.918;2022-09-28T14:39:47;55.35;;;52.47;;
41221;SDS011;26952;42.884;23.918;2022-09-28T14:42:26;59.17;;;55.85;;
41221;SDS011;26952;42.884;23.918;2022-09-28T14:47:40;69.60;;;65.95;;
41221;SDS011;26952;42.884;23.918;2022-09-28T14:50:28;92.63;;;87.38;;
41221;SDS011;26952;42.884;23.918;2022-09-28T14:52:54;96.90;;;91.43;;
41221;SDS011;26952;42.884;23.918;2022-09-28T14:55:30;94.35;;;89.13;;
41221;SDS011;26952;42.884;23.918;2022-09-28T14:57:59;114.65;;;108.15;;
41221;SDS011;26952;42.884;23.918;2022-09-28T15:00:28;132.13;;;124.95;;
41221;SDS011;26952;42.884;23.918;2022-09-28T15:02:59;127.93;;;120.78;;
41221;SDS011;26952;42.884;23.918;2022-09-28T15:05:44;131.02;;;124.13;;
41221;SDS011;26952;42.884;23.918;2022-09-28T15:08:13;125.97;;;119.28;;
41221;SDS011;26952;42.884;23.918;2022-09-28T15:10:43;119.70;;;113.40;;
41221;SDS011;26952;42.884;23.918;2022-09-28T15:13:17;123.78;;;116.70;;
41221;SDS011;26952;42.884;23.918;2022-09-28T15:15:48;128.63;;;121.47;;
41221;SDS011;26952;42.884;23.918;2022-09-28T15:21:19;116.82;;;110.22;;
41221;SDS011;26952;42.884;23.918;2022-09-28T15:23:45;124.85;;;117.85;;
41221;SDS011;26952;42.884;23.918;2022-09-28T15:26:25;123.15;;;116.70;;
41221;SDS011;26952;42.884;23.918;2022-09-28T15:28:55;141.00;;;133.30;;
41221;SDS011;26952;42.884;23.918;2022-09-28T15:31:21;148.77;;;141.10;;
41221;SDS011;26952;42.884;23.918;2022-09-28T15:33:50;142.95;;;135.27;;
41221;SDS011;26952;42.884;23.918;2022-09-28T15:36:41;116.72;;;110.78;;
41221;SDS011;26952;42.884;23.918;2022-09-28T15:39:29;134.40;;;127.43;;
41221;SDS011;26952;42.884;23.918;2022-09-28T15:41:56;147.90;;;140.23;;
41221;SDS011;26952;42.884;23.918;2022-09-28T15:47:05;140.15;;;132.65;;
41221;SDS011;26952;42.884;23.918;2022-09-28T15:49:53;137.10;;;130.10;;
41221;SDS011;26952;42.884;23.918;2022-09-28T15:52:35;144.07;;;136.45;;
41221;SDS011;26952;42.884;23.918;2022-09-28T15:55:04;124.70;;;118.30;;
41221;SDS011;26952;42.884;23.918;2022-09-28T15:57:40;117.63;;;111.43;;
41221;SDS011;26952;42.884;23.918;2022-09-28T16:00:22;111.95;;;106.32;;
41221;SDS011;26952;42.884;23.918;2022-09-28T16:05:29;97.20;;;92.15;;
41221;SDS011;26952;42.884;23.918;2022-09-28T16:08:00;116.43;;;110.32;;
41221;SDS011;26952;42.884;23.918;2022-09-28T16:10:29;122.47;;;116.07;;
41221;SDS011;26952;42.884;23.918;2022-09-28T16:13:05;123.78;;;117.38;;
41221;SDS011;26952;42.884;23.918;2022-09-28T16:15:35;118.68;;;112.55;;
41221;SDS011;26952;42.884;23.918;2022-09-28T16:18:23;120.95;;;114.93;;
41221;SDS011;26952;42.884;23.918;2022-09-28T16:20:50;111.95;;;106.28;;
41221;SDS011;26952;42.884;23.918;2022-09-28T16:23:22;124.75;;;118.20;;
41221;SDS011;26952;42.884;23.918;2022-09-28T16:31:06;124.75;;;118.25;;
41221;SDS011;26952;42.884;23.918;2022-09-28T16:36:21;128.95;;;122.10;;
41221;SDS011;26952;42.884;23.918;2022-09-28T16:38:47;125.47;;;118.78;;
41221;SDS011;26952;42.884;23.918;2022-09-28T16:41:18;130.13;;;122.72;;
41221;SDS011;26952;42.884;23.918;2022-09-28T16:43:45;120.10;;;113.97;;
41221;SDS011;26952;42.884;23.918;2022-09-28T16:46:12;128.05;;;120.93;;
41221;SDS011;26952;42.884;23.918;2022-09-28T16:48:45;129.32;;;122.75;;
41221;SDS011;26952;42.884;23.918;2022-09-28T16:51:17;126.30;;;120.03;;
41221;SDS011;26952;42.884;23.918;2022-09-28T16:53:45;126.35;;;119.85;;
41221;SDS011;26952;42.884;23.918;2022-09-28T16:56:33;116.75;;;111.07;;
41221;SDS011;26952;42.884;23.918;2022-09-28T16:59:00;113.45;;;107.45;;
41221;SDS011;26952;42.884;23.918;2022-09-28T17:01:28;112.05;;;106.50;;
41221;SDS011;26952;42.884;23.918;2022-09-28T17:03:55;112.47;;;106.75;;
41221;SDS011;26952;42.884;23.918;2022-09-28T17:06:21;107.43;;;101.88;;
41221;SDS011;26952;42.884;23.918;2022-09-28T17:08:51;96.38;;;91.07;;
41221;SDS011;26952;42.884;23.918;2022-09-28T17:11:22;107.22;;;101.93;;
41221;SDS011;26952;42.884;23.918;2022-09-28T17:13:47;104.63;;;99.57;;
41221;SDS011;26952;42.884;23.918;2022-09-28T17:16:17;107.15;;;101.63;;
41221;SDS011;26952;42.884;23.918;2022-09-28T17:18:46;115.78;;;109.43;;
41221;SDS011;26952;42.884;23.918;2022-09-28T17:21:16;107.85;;;102.53;;
41221;SDS011;26952;42.884;23.918;2022-09-28T17:23:43;116.00;;;110.35;;
41221;SDS011;26952;42.884;23.918;2022-09-28T17:26:27;107.22;;;101.60;;
41221;SDS011;26952;42.884;23.918;2022-09-28T17:28:58;107.00;;;101.10;;
41221;SDS011;26952;42.884;23.918;2022-09-28T17:31:26;103.50;;;98.13;;
41221;SDS011;26952;42.884;23.918;2022-09-28T17:33:53;110.88;;;105.18;;
41221;SDS011;26952;42.884;23.918;2022-09-28T17:36:19;106.13;;;100.22;;